createdAt,value
2022-10-22T00:01:14.605Z,100257.66
2022-10-22T00:11:20.706Z,100253.63
2022-10-22T00:21:23.995Z,100249.19
2022-10-22T00:31:28.488Z,100249.03
2022-10-22T00:41:31.544Z,100242.97
2022-10-22T00:51:37.105Z,100239.63
2022-10-22T01:01:40.281Z,100236.09
2022-10-22T01:11:55.548Z,100226.72
2022-10-22T01:22:06.007Z,100232.09
2022-10-22T01:32:15.561Z,100236.53
2022-10-22T01:42:18.658Z,100234.31
2022-10-22T01:52:32.989Z,100226.03
2022-10-22T02:02:42.204Z,100230.75
2022-10-22T02:12:49.920Z,100223.38
2022-10-22T02:22:53.392Z,100229.16
2022-10-22T02:33:03.693Z,100234.41
2022-10-22T02:43:07.418Z,100224.69
2022-10-22T02:53:11.583Z,100233.50
2022-10-22T03:03:14.374Z,100242.13
2022-10-22T03:13:18.652Z,100246.97
2022-10-22T03:23:21.560Z,100257.75
2022-10-22T03:33:26.120Z,100263.09
2022-10-22T03:43:29.432Z,100275.66
2022-10-22T03:53:33.713Z,100277.31
2022-10-22T04:03:37.211Z,100281.13
2022-10-22T04:13:41.757Z,100298.38
2022-10-22T04:23:46.323Z,100302.59
2022-10-22T04:33:53.666Z,100308.03
2022-10-22T04:43:58.073Z,100308.41
2022-10-22T04:54:02.614Z,100317.91
2022-10-22T05:04:08.252Z,100328.75
2022-10-22T05:14:13.506Z,100322.00
2022-10-22T05:24:16.572Z,100325.63
2022-10-22T05:34:20.982Z,100343.06
2022-10-22T05:44:23.817Z,100356.63
2022-10-22T05:54:28.060Z,100372.63
2022-10-22T06:04:30.926Z,100390.81
2022-10-22T06:14:35.355Z,100408.16
2022-10-22T06:24:40.452Z,100423.34
2022-10-22T06:34:48.329Z,100455.34
2022-10-22T06:44:51.357Z,100468.41
2022-10-22T06:54:55.676Z,100478.88
2022-10-22T07:04:58.694Z,100477.88
2022-10-22T07:15:02.861Z,100489.81
2022-10-22T07:25:07.467Z,100497.81
2022-10-22T07:35:12.082Z,100506.59
2022-10-22T07:45:14.935Z,100527.41
2022-10-22T07:55:19.108Z,100548.38
2022-10-22T08:05:21.923Z,100563.91
2022-10-22T08:15:27.293Z,100573.47
2022-10-22T08:25:30.323Z,100583.56
2022-10-22T08:35:34.464Z,100601.34
2022-10-22T08:45:42.167Z,100601.19
2022-10-22T08:55:47.042Z,100615.72
2022-10-22T09:06:02.805Z,100629.72
2022-10-22T09:16:17.305Z,100641.72
2022-10-22T09:26:22.626Z,100646.47
2022-10-22T09:36:30.479Z,100650.75
2022-10-22T09:46:44.118Z,100647.47
2022-10-22T09:57:03.478Z,100659.59
2022-10-22T10:07:17.211Z,100669.19
2022-10-22T10:17:29.079Z,100677.91
2022-10-22T10:27:38.099Z,100677.59
2022-10-22T10:37:50.519Z,100700.81
2022-10-22T10:48:09.354Z,100710.09
2022-10-22T10:58:23.052Z,100704.88
2022-10-22T11:08:31.223Z,100712.06
2022-10-22T11:18:40.365Z,100700.25
2022-10-22T11:28:46.971Z,100712.13
2022-10-22T11:38:52.254Z,100709.94
2022-10-22T11:49:19.165Z,100713.22
2022-10-22T11:59:39.968Z,100716.66
2022-10-22T12:09:43.332Z,100710.69
2022-10-22T12:19:50.176Z,100712.38
2022-10-22T12:29:56.470Z,100696.75
2022-10-22T12:40:01.851Z,100689.25
2022-10-22T12:50:05.677Z,100678.88
2022-10-22T13:00:22.261Z,100679.84
2022-10-22T13:10:27.427Z,100673.00
2022-10-22T13:20:32.658Z,100677.59
2022-10-22T13:30:37.731Z,100660.03
2022-10-22T13:40:42.351Z,100659.06
2022-10-22T13:50:45.580Z,100656.44
2022-10-22T14:00:52.470Z,100660.22
2022-10-22T14:10:55.864Z,100660.91
2022-10-22T14:21:04.853Z,100662.31
2022-10-22T14:31:09.731Z,100668.97
2022-10-22T14:41:20.839Z,100661.66
2022-10-22T14:51:24.048Z,100666.22
2022-10-22T15:01:28.238Z,100663.41
2022-10-22T15:11:31.240Z,100673.38
2022-10-22T15:21:35.484Z,100666.91
2022-10-22T15:31:47.906Z,100683.09
2022-10-22T15:41:52.951Z,100684.63
2022-10-22T15:51:56.919Z,100690.00
2022-10-22T16:02:01.567Z,100693.72
2022-10-22T16:12:04.544Z,100696.78
2022-10-22T16:22:11.571Z,100689.69
2022-10-22T16:32:16.209Z,100696.84
2022-10-22T16:42:20.604Z,100705.13
2022-10-22T16:52:23.707Z,100714.13
2022-10-22T17:02:28.018Z,100723.41
2022-10-22T17:12:35.156Z,100727.97
2022-10-22T17:22:39.496Z,100736.97
2022-10-22T17:32:42.430Z,100736.25
2022-10-22T17:42:46.911Z,100747.59
2022-10-22T17:52:50.596Z,100751.84
2022-10-22T18:02:54.947Z,100743.34
2022-10-22T18:12:57.715Z,100750.47
2022-10-22T18:23:03.628Z,100755.56
2022-10-22T18:33:06.646Z,100759.78
2022-10-22T18:43:11.043Z,100748.28
2022-10-22T18:53:16.558Z,100736.44
2022-10-22T19:03:20.993Z,100743.50
2022-10-22T19:13:25.721Z,100746.13
2022-10-22T19:23:31.300Z,100740.75
2022-10-22T19:33:35.811Z,100741.78
2022-10-22T19:43:40.035Z,100744.28
2022-10-22T19:53:43.096Z,100756.47
2022-10-22T20:03:47.728Z,100737.97
2022-10-22T20:13:53.454Z,100751.88
2022-10-22T20:23:58.660Z,100758.19
2022-10-22T20:34:02.788Z,100752.84
2022-10-22T20:44:08.431Z,100736.84
2022-10-22T20:54:12.110Z,100748.09
2022-10-22T21:04:17.998Z,100738.94
2022-10-22T21:14:23.160Z,100756.16
2022-10-22T21:24:27.679Z,100758.16
2022-10-22T21:34:33.251Z,100763.38
2022-10-22T21:44:40.223Z,100767.50
2022-10-22T21:54:43.262Z,100765.88
2022-10-22T22:04:47.931Z,100750.59
2022-10-22T22:14:50.699Z,100732.47
2022-10-22T22:24:55.404Z,100729.09
2022-10-22T22:34:58.426Z,100723.59
2022-10-22T22:45:02.966Z,100718.88
2022-10-22T22:55:06.877Z,100718.84
2022-10-22T23:05:11.494Z,100716.13
2022-10-22T23:15:14.517Z,100712.59
2022-10-22T23:25:19.001Z,100719.97
2022-10-22T23:35:22.314Z,100701.53
2022-10-22T23:45:26.515Z,100706.16
2022-10-22T23:55:29.471Z,100702.97
